createdAt,value
2023-09-24T00:01:54.283Z,16.56
2023-09-24T00:04:57.321Z,16.59
2023-09-24T00:07:59.800Z,16.60
2023-09-24T00:11:04.091Z,16.64
2023-09-24T00:14:06.713Z,16.63
2023-09-24T00:17:09.986Z,16.66
2023-09-24T00:20:12.791Z,16.59
2023-09-24T00:23:18.037Z,16.52
2023-09-24T00:26:20.540Z,16.60
2023-09-24T00:29:24.750Z,16.67
2023-09-24T00:32:27.343Z,16.62
2023-09-24T00:35:31.321Z,16.68
2023-09-24T00:38:33.954Z,16.64
2023-09-24T00:41:37.732Z,16.69
2023-09-24T00:44:40.244Z,16.71
2023-09-24T00:47:44.395Z,16.63
2023-09-24T00:50:46.936Z,16.57
2023-09-24T00:53:50.480Z,16.64
2023-09-24T00:56:54.134Z,16.62
2023-09-24T00:59:56.690Z,16.62
2023-09-24T01:02:59.406Z,16.61
2023-09-24T01:06:02.025Z,16.66
2023-09-24T01:09:07.589Z,16.59
2023-09-24T01:12:21.739Z,16.58
2023-09-24T01:15:26.538Z,16.54
2023-09-24T01:18:29.336Z,16.59
2023-09-24T01:21:33.613Z,16.52
2023-09-24T01:24:36.407Z,16.43
2023-09-24T01:27:39.079Z,16.50
2023-09-24T01:30:41.741Z,16.40
2023-09-24T01:33:45.295Z,16.43
2023-09-24T01:36:48.161Z,16.48
2023-09-24T01:39:52.988Z,16.53
2023-09-24T01:43:01.548Z,16.52
2023-09-24T01:46:07.954Z,16.44
2023-09-24T01:49:11.576Z,16.38
2023-09-24T01:52:15.388Z,16.38
2023-09-24T01:55:17.976Z,16.39
2023-09-24T01:58:20.468Z,16.33
2023-09-24T02:01:24.028Z,16.38
2023-09-24T02:04:26.650Z,16.34
2023-09-24T02:07:29.174Z,16.37
2023-09-24T02:10:31.760Z,16.35
2023-09-24T02:13:34.126Z,16.38
2023-09-24T02:16:39.863Z,16.29
2023-09-24T02:19:45.967Z,16.30
2023-09-24T02:22:52.213Z,16.33
2023-09-24T02:25:54.892Z,16.37
2023-09-24T02:28:57.465Z,16.32
2023-09-24T02:32:00.046Z,16.29
2023-09-24T02:35:04.305Z,16.28
2023-09-24T02:38:06.959Z,16.27
2023-09-24T02:41:09.387Z,16.26
2023-09-24T02:44:12.075Z,16.21
2023-09-24T02:47:16.019Z,16.20
2023-09-24T02:50:19.485Z,16.17
2023-09-24T02:53:22.031Z,16.25
2023-09-24T02:56:24.697Z,16.24
2023-09-24T02:59:27.245Z,16.15
2023-09-24T03:02:29.922Z,16.15
2023-09-24T03:05:33.666Z,16.11
2023-09-24T03:08:37.431Z,16.20
2023-09-24T03:11:40.181Z,16.18
2023-09-24T03:14:43.101Z,16.18
2023-09-24T03:17:48.012Z,16.18
2023-09-24T03:20:51.841Z,16.10
2023-09-24T03:23:55.306Z,16.14
2023-09-24T03:26:58.866Z,16.10
2023-09-24T03:30:02.207Z,16.14
2023-09-24T03:33:06.170Z,16.11
2023-09-24T03:36:11.626Z,16.04
2023-09-24T03:39:14.706Z,15.97
2023-09-24T03:42:17.312Z,15.89
2023-09-24T03:45:20.850Z,15.91
2023-09-24T03:48:23.816Z,15.84
2023-09-24T03:51:27.304Z,15.89
2023-09-24T03:54:29.927Z,15.82
2023-09-24T03:57:32.566Z,15.89
2023-09-24T04:00:35.146Z,15.89
2023-09-24T04:03:38.689Z,15.88
2023-09-24T04:06:42.072Z,15.86
2023-09-24T04:09:45.034Z,15.90
2023-09-24T04:12:48.126Z,15.83
2023-09-24T04:15:53.960Z,15.85
2023-09-24T04:18:57.078Z,15.90
2023-09-24T04:21:59.653Z,15.84
2023-09-24T04:25:03.264Z,15.91
2023-09-24T04:28:06.020Z,15.79
2023-09-24T04:31:08.424Z,15.71
2023-09-24T04:34:13.767Z,15.80
2023-09-24T04:37:17.820Z,15.76
2023-09-24T04:40:20.703Z,15.68
2023-09-24T04:43:23.452Z,15.73
2023-09-24T04:46:27.159Z,15.71
2023-09-24T04:49:29.661Z,15.57
2023-09-24T04:52:33.041Z,15.69
2023-09-24T04:55:35.419Z,15.71
2023-09-24T04:58:37.894Z,15.62
2023-09-24T05:01:40.369Z,15.62
2023-09-24T05:04:44.422Z,15.56
2023-09-24T05:07:46.857Z,15.50
2023-09-24T05:10:50.978Z,15.60
2023-09-24T05:13:53.624Z,15.45
2023-09-24T05:16:56.098Z,15.41
2023-09-24T05:19:58.816Z,15.47
2023-09-24T05:23:01.809Z,15.51
2023-09-24T05:26:04.183Z,15.47
2023-09-24T05:29:06.877Z,15.58
2023-09-24T05:32:09.475Z,15.54
2023-09-24T05:35:12.333Z,15.47
2023-09-24T05:38:14.716Z,15.45
2023-09-24T05:41:17.602Z,15.49
2023-09-24T05:44:21.714Z,15.44
2023-09-24T05:47:24.330Z,15.47
2023-09-24T05:50:26.874Z,15.57
2023-09-24T05:53:29.396Z,15.63
2023-09-24T05:56:31.961Z,15.71
2023-09-24T05:59:34.644Z,15.65
2023-09-24T06:02:37.175Z,15.61
2023-09-24T06:05:40.237Z,15.59
2023-09-24T06:08:42.789Z,15.73
2023-09-24T06:11:47.171Z,15.71
2023-09-24T06:14:49.688Z,15.88
2023-09-24T06:17:52.336Z,15.91
2023-09-24T06:20:55.435Z,15.95
2023-09-24T06:23:58.713Z,15.90
2023-09-24T06:27:01.260Z,15.94
2023-09-24T06:30:06.074Z,15.85
2023-09-24T06:33:08.748Z,15.88
2023-09-24T06:36:11.190Z,15.84
2023-09-24T06:39:15.525Z,15.88
2023-09-24T06:42:18.007Z,15.95
2023-09-24T06:45:20.384Z,15.90
2023-09-24T06:48:23.914Z,15.97
2023-09-24T06:51:26.464Z,15.98
2023-09-24T06:54:29.001Z,15.96
2023-09-24T06:57:32.763Z,16.02
2023-09-24T07:00:35.540Z,16.00
2023-09-24T07:03:38.546Z,15.98
2023-09-24T07:06:42.183Z,15.91
2023-09-24T07:09:47.394Z,15.97
2023-09-24T07:12:49.749Z,16.06
2023-09-24T07:15:52.156Z,16.07
2023-09-24T07:18:55.217Z,16.07
2023-09-24T07:21:58.643Z,16.12
2023-09-24T07:25:01.109Z,16.06
2023-09-24T07:28:03.683Z,16.10
2023-09-24T07:31:15.574Z,16.14
2023-09-24T07:34:18.055Z,15.99
2023-09-24T07:37:20.696Z,16.03
2023-09-24T07:40:23.159Z,16.23
2023-09-24T07:43:25.589Z,16.08
2023-09-24T07:46:28.066Z,16.05
2023-09-24T07:49:30.709Z,16.16
2023-09-24T07:52:35.268Z,16.20
2023-09-24T07:55:38.066Z,16.16
2023-09-24T07:58:43.391Z,16.18
2023-09-24T08:01:45.781Z,16.15
2023-09-24T08:04:48.186Z,16.26
2023-09-24T08:07:50.631Z,16.44
2023-09-24T08:10:53.493Z,16.58
2023-09-24T08:13:56.394Z,16.50
2023-09-24T08:16:59.218Z,16.56
2023-09-24T08:20:01.733Z,16.39
2023-09-24T08:23:04.839Z,16.53
2023-09-24T08:26:07.322Z,16.53
2023-09-24T08:29:10.170Z,16.52
2023-09-24T08:32:12.607Z,16.61
2023-09-24T08:35:15.081Z,16.58
2023-09-24T08:38:17.429Z,16.67
2023-09-24T08:41:19.927Z,16.74
2023-09-24T08:44:22.615Z,16.72
2023-09-24T08:47:25.050Z,16.81
2023-09-24T08:50:27.500Z,16.85
2023-09-24T08:53:30.971Z,16.94
2023-09-24T08:56:33.483Z,16.91
2023-09-24T08:59:37.041Z,16.89
2023-09-24T09:02:44.393Z,16.87
2023-09-24T09:05:47.787Z,16.88
2023-09-24T09:08:53.813Z,16.90
2023-09-24T09:11:56.888Z,16.96
2023-09-24T09:14:59.501Z,16.97
2023-09-24T09:18:02.462Z,16.96
2023-09-24T09:21:05.258Z,17.02
2023-09-24T09:24:21.533Z,17.02
2023-09-24T09:27:24.038Z,17.11
2023-09-24T09:30:26.513Z,17.13
2023-09-24T09:33:30.053Z,17.13
2023-09-24T09:36:36.341Z,17.10
2023-09-24T09:39:38.760Z,17.11
2023-09-24T09:42:41.224Z,17.04
2023-09-24T09:45:46.623Z,17.16
2023-09-24T09:48:55.952Z,17.27
2023-09-24T09:52:02.252Z,17.26
2023-09-24T09:55:05.992Z,17.36
2023-09-24T09:58:21.610Z,17.43
2023-09-24T10:01:25.873Z,17.40
2023-09-24T10:04:30.732Z,17.32
2023-09-24T10:07:37.580Z,17.31
2023-09-24T10:10:41.841Z,17.27
2023-09-24T10:13:45.655Z,17.29
2023-09-24T10:16:48.529Z,17.23
2023-09-24T10:19:52.211Z,17.21
2023-09-24T10:22:57.270Z,17.13
2023-09-24T10:26:06.106Z,17.10
2023-09-24T10:29:09.503Z,17.07
2023-09-24T10:32:16.231Z,16.99
2023-09-24T10:35:19.125Z,16.99
2023-09-24T10:38:21.733Z,16.95
2023-09-24T10:41:24.428Z,16.97
2023-09-24T10:44:28.984Z,16.95
2023-09-24T10:47:32.626Z,16.94
2023-09-24T10:50:35.178Z,17.00
2023-09-24T10:53:37.828Z,16.97
2023-09-24T10:56:40.324Z,16.95
2023-09-24T10:59:42.708Z,17.00
2023-09-24T11:02:46.736Z,17.05
2023-09-24T11:05:50.019Z,17.11
2023-09-24T11:08:52.837Z,17.17
2023-09-24T11:11:55.309Z,17.23
2023-09-24T11:15:14.510Z,17.31
2023-09-24T11:18:18.115Z,17.30
2023-09-24T11:21:21.045Z,17.37
2023-09-24T11:24:23.989Z,17.50
2023-09-24T11:27:26.430Z,17.78
2023-09-24T11:30:47.453Z,17.77
2023-09-24T11:33:57.706Z,17.78
2023-09-24T11:37:00.284Z,17.74
2023-09-24T11:40:02.764Z,17.77
2023-09-24T11:43:15.306Z,17.81
2023-09-24T11:46:27.158Z,17.93
2023-09-24T11:49:29.649Z,18.13
2023-09-24T11:52:33.170Z,18.18
2023-09-24T11:55:36.225Z,18.23
2023-09-24T11:58:39.564Z,18.34
2023-09-24T12:01:42.618Z,18.36
2023-09-24T12:04:47.028Z,18.35
2023-09-24T12:07:51.700Z,18.40
2023-09-24T12:10:54.223Z,18.39
2023-09-24T12:13:57.726Z,18.39
2023-09-24T12:17:00.192Z,18.45
2023-09-24T12:20:02.893Z,18.51
2023-09-24T12:23:07.590Z,18.48
2023-09-24T12:26:10.090Z,18.55
2023-09-24T12:29:12.562Z,18.57
2023-09-24T12:32:15.144Z,18.62
2023-09-24T12:35:17.835Z,18.65
2023-09-24T12:38:20.302Z,18.62
2023-09-24T12:41:23.573Z,18.69
2023-09-24T12:44:26.021Z,18.68
2023-09-24T12:47:34.249Z,18.72
2023-09-24T12:50:37.112Z,18.83
2023-09-24T12:53:42.156Z,18.86
2023-09-24T12:56:44.967Z,18.84
2023-09-24T12:59:47.494Z,18.82
2023-09-24T13:02:50.129Z,18.80
2023-09-24T13:05:52.684Z,18.81
2023-09-24T13:08:55.182Z,18.77
2023-09-24T13:11:59.658Z,18.73
2023-09-24T13:15:02.384Z,18.70
2023-09-24T13:18:05.130Z,18.65
2023-09-24T13:21:07.730Z,18.67
2023-09-24T13:24:10.254Z,18.67
2023-09-24T13:27:12.719Z,18.67
2023-09-24T13:30:15.214Z,18.62
2023-09-24T13:33:17.830Z,18.61
2023-09-24T13:36:20.450Z,18.63
2023-09-24T13:39:23.327Z,18.58
2023-09-24T13:42:25.843Z,18.58
2023-09-24T13:45:28.941Z,18.68
2023-09-24T13:48:31.953Z,18.64
2023-09-24T13:51:37.263Z,18.61
2023-09-24T13:54:40.203Z,18.64
2023-09-24T13:57:42.660Z,18.61
2023-09-24T14:00:53.286Z,18.56
2023-09-24T14:03:56.125Z,18.52
2023-09-24T14:06:58.952Z,18.50
2023-09-24T14:10:20.120Z,18.49
2023-09-24T14:13:22.592Z,18.46
2023-09-24T14:16:25.003Z,18.45
2023-09-24T14:19:27.505Z,18.42
2023-09-24T14:22:29.880Z,18.31
2023-09-24T14:25:33.590Z,18.35
2023-09-24T14:28:36.113Z,18.28
2023-09-24T14:31:38.542Z,18.29
2023-09-24T14:34:41.017Z,18.22
2023-09-24T14:37:43.503Z,18.20
2023-09-24T14:40:45.923Z,18.16
2023-09-24T14:43:48.537Z,18.08
2023-09-24T14:46:51.082Z,18.06
2023-09-24T14:49:53.525Z,18.03
2023-09-24T14:52:56.087Z,17.98
2023-09-24T14:56:01.496Z,17.95
2023-09-24T14:59:04.081Z,17.82
2023-09-24T15:02:06.654Z,17.69
2023-09-24T15:05:09.630Z,17.66
2023-09-24T15:08:12.266Z,17.62
2023-09-24T15:11:14.738Z,17.65
2023-09-24T15:14:18.840Z,17.55
2023-09-24T15:17:21.333Z,17.44
2023-09-24T15:20:23.786Z,17.49
2023-09-24T15:23:26.617Z,17.47
2023-09-24T15:26:29.174Z,17.50
2023-09-24T15:29:31.754Z,17.48
2023-09-24T15:32:34.273Z,17.41
2023-09-24T15:35:37.234Z,17.41
2023-09-24T15:38:39.702Z,17.34
2023-09-24T15:41:45.268Z,17.32
2023-09-24T15:44:47.757Z,17.28
2023-09-24T15:47:50.413Z,17.39
2023-09-24T15:50:53.311Z,17.29
2023-09-24T15:53:55.929Z,17.24
2023-09-24T15:56:58.358Z,17.24
2023-09-24T16:00:00.844Z,17.16
2023-09-24T16:03:03.732Z,17.13
2023-09-24T16:06:06.367Z,17.24
2023-09-24T16:09:08.992Z,17.22
2023-09-24T16:12:11.518Z,17.18
2023-09-24T16:15:15.414Z,17.21
2023-09-24T16:18:17.927Z,17.11
2023-09-24T16:21:20.452Z,17.18
2023-09-24T16:24:22.933Z,17.10
2023-09-24T16:27:25.408Z,17.10
2023-09-24T16:30:27.882Z,17.13
2023-09-24T16:33:30.395Z,17.00
2023-09-24T16:36:34.794Z,16.96
2023-09-24T16:39:37.523Z,16.97
2023-09-24T16:42:40.122Z,16.93
2023-09-24T16:45:49.865Z,16.87
2023-09-24T16:48:52.393Z,16.89
2023-09-24T16:51:54.837Z,16.88
2023-09-24T16:54:57.257Z,16.83
2023-09-24T16:58:00.183Z,16.79
2023-09-24T17:01:02.720Z,16.80
2023-09-24T17:04:05.597Z,16.79
2023-09-24T17:07:08.124Z,16.73
2023-09-24T17:10:11.968Z,16.79
2023-09-24T17:13:16.147Z,16.77
2023-09-24T17:16:20.360Z,16.78
2023-09-24T17:19:23.925Z,16.73
2023-09-24T17:22:27.593Z,16.71
2023-09-24T17:25:30.062Z,16.65
2023-09-24T17:28:32.476Z,16.67
2023-09-24T17:31:35.048Z,16.65
2023-09-24T17:34:37.598Z,16.50
2023-09-24T17:37:40.174Z,16.58
2023-09-24T17:40:42.857Z,16.55
2023-09-24T17:43:45.341Z,16.48
2023-09-24T17:46:48.532Z,16.50
2023-09-24T17:49:51.007Z,16.47
2023-09-24T17:52:53.585Z,16.47
2023-09-24T17:55:56.684Z,16.54
2023-09-24T17:58:59.053Z,16.44
2023-09-24T18:02:01.651Z,16.39
2023-09-24T18:05:04.597Z,16.40
2023-09-24T18:08:08.303Z,16.45
2023-09-24T18:11:10.815Z,16.39
2023-09-24T18:14:13.493Z,16.40
2023-09-24T18:17:15.983Z,16.46
2023-09-24T18:20:18.449Z,16.42
2023-09-24T18:23:21.237Z,16.56
2023-09-24T18:26:23.675Z,16.46
2023-09-24T18:29:26.138Z,16.49
2023-09-24T18:32:28.617Z,16.53
2023-09-24T18:35:31.157Z,16.60
2023-09-24T18:38:33.734Z,16.53
2023-09-24T18:41:36.211Z,16.62
2023-09-24T18:44:38.790Z,16.48
2023-09-24T18:47:41.356Z,16.40
2023-09-24T18:50:44.157Z,16.55
2023-09-24T18:53:47.421Z,16.59
2023-09-24T18:56:50.231Z,16.70
2023-09-24T18:59:53.452Z,16.66
2023-09-24T19:02:56.139Z,16.58
2023-09-24T19:05:58.750Z,16.41
2023-09-24T19:09:01.306Z,16.44
2023-09-24T19:12:03.773Z,16.50
2023-09-24T19:15:08.114Z,16.51
2023-09-24T19:18:12.060Z,16.50
2023-09-24T19:21:14.505Z,16.62
2023-09-24T19:24:17.012Z,16.56
2023-09-24T19:27:20.165Z,16.58
2023-09-24T19:30:22.864Z,16.58
2023-09-24T19:33:25.444Z,16.53
2023-09-24T19:36:28.038Z,16.53
2023-09-24T19:39:30.642Z,16.54
2023-09-24T19:42:35.351Z,16.62
2023-09-24T19:45:37.973Z,16.71
2023-09-24T19:48:40.673Z,16.76
2023-09-24T19:51:43.552Z,16.75
2023-09-24T19:54:46.137Z,16.72
2023-09-24T19:57:48.613Z,16.67
2023-09-24T20:00:51.496Z,16.65
2023-09-24T20:03:53.974Z,16.63
2023-09-24T20:06:59.577Z,16.61
2023-09-24T20:10:02.717Z,16.59
2023-09-24T20:13:05.308Z,16.57
2023-09-24T20:16:07.913Z,16.61
2023-09-24T20:19:10.781Z,16.60
2023-09-24T20:22:13.239Z,16.58
2023-09-24T20:25:27.589Z,16.58
2023-09-24T20:28:41.871Z,16.51
2023-09-24T20:31:50.646Z,16.58
2023-09-24T20:34:53.184Z,16.53
2023-09-24T20:37:55.628Z,16.52
2023-09-24T20:41:15.180Z,16.47
2023-09-24T20:44:17.786Z,16.56
2023-09-24T20:47:20.998Z,16.58
2023-09-24T20:50:23.420Z,16.62
2023-09-24T20:53:25.950Z,16.74
2023-09-24T20:56:28.836Z,16.75
2023-09-24T20:59:31.858Z,16.71
2023-09-24T21:02:34.328Z,16.74
2023-09-24T21:05:37.200Z,16.77
2023-09-24T21:08:39.593Z,16.85
2023-09-24T21:11:42.052Z,16.77
2023-09-24T21:14:44.842Z,16.69
2023-09-24T21:17:47.445Z,16.80
2023-09-24T21:20:53.067Z,16.77
2023-09-24T21:23:55.468Z,16.80
2023-09-24T21:26:58.092Z,16.76
2023-09-24T21:30:00.721Z,16.76
2023-09-24T21:33:03.370Z,16.78
2023-09-24T21:36:06.950Z,16.73
2023-09-24T21:39:09.707Z,16.67
2023-09-24T21:42:12.985Z,16.74
2023-09-24T21:45:15.482Z,16.77
2023-09-24T21:48:17.944Z,16.67
2023-09-24T21:51:20.520Z,16.62
2023-09-24T21:54:23.006Z,16.60
2023-09-24T21:57:25.539Z,16.57
2023-09-24T22:00:32.144Z,16.49
2023-09-24T22:03:34.911Z,16.51
2023-09-24T22:06:37.605Z,16.49
2023-09-24T22:09:40.757Z,16.42
2023-09-24T22:12:43.168Z,16.37
2023-09-24T22:15:46.710Z,16.40
2023-09-24T22:18:49.684Z,16.48
2023-09-24T22:21:52.836Z,16.37
2023-09-24T22:24:55.331Z,16.39
2023-09-24T22:27:57.774Z,16.42
2023-09-24T22:31:06.840Z,16.33
2023-09-24T22:34:09.321Z,16.39
2023-09-24T22:37:11.806Z,16.36
2023-09-24T22:40:15.666Z,16.36
2023-09-24T22:43:26.087Z,16.28
2023-09-24T22:46:29.527Z,16.27
2023-09-24T22:49:32.064Z,16.33
2023-09-24T22:52:34.945Z,16.37
2023-09-24T22:55:37.421Z,16.31
2023-09-24T22:58:39.905Z,16.38
2023-09-24T23:01:42.452Z,16.22
2023-09-24T23:04:44.926Z,16.24
2023-09-24T23:07:47.544Z,16.20
2023-09-24T23:10:50.016Z,16.26
2023-09-24T23:13:52.392Z,16.23
2023-09-24T23:16:54.884Z,16.17
2023-09-24T23:19:57.346Z,16.19
2023-09-24T23:22:59.850Z,16.10
2023-09-24T23:26:02.201Z,16.11
2023-09-24T23:29:05.212Z,16.06
2023-09-24T23:32:07.671Z,16.01
2023-09-24T23:35:10.147Z,16.02
2023-09-24T23:38:12.625Z,16.03
2023-09-24T23:41:15.068Z,16.00
2023-09-24T23:44:17.443Z,15.99
2023-09-24T23:47:19.923Z,15.98
2023-09-24T23:50:22.304Z,15.89
2023-09-24T23:53:24.670Z,15.75
2023-09-24T23:56:27.386Z,15.87
2023-09-24T23:59:29.865Z,15.80
